Date,TemperatureHighF,TemperatureAvgF,TemperatureLowF,DewpointHighF,DewpointAvgF,DewpointLowF,HumidityHigh,HumidityAvg,HumidityLow,PressureMaxIn,PressureMinIn,WindSpeedMaxMPH,WindSpeedAvgMPH,GustSpeedMaxMPH,PrecipitationSumIn
2013-1-1,61.9,46.2,35.4,34.7,27.9,19.3,90,52,26,30.11,30.03,9,3,0,0.00
2013-1-2,63.1,49.7,41.2,34.4,25.1,18.2,74,40,25,30.09,29.99,9,4,0,0.00
2013-1-3,63.7,48.0,38.8,37.3,30.1,21.8,69,51,30,30.13,30.02,8,3,0,0.00
2013-1-4,65.7,49.6,39.2,39.5,34.5,30.2,75,59,28,30.14,30.03,7,2,0,0.00
2013-1-5,46.8,43.1,40.5,42.9,36.4,28.1,99,78,56,30.11,29.92,7,3,0,0.68
2013-1-6,57.4,44.0,39.2,44.9,40.3,37.6,97,87,57,30.05,29.92,8,4,0,0.00
2013-1-7,66.2,49.3,39.4,48.6,42.7,36.8,98,80,51,30.12,30.02,12,4,0,0.00
2013-1-8,74.1,53.0,43.9,51.4,46.3,43.6,99,81,44,30.11,30.00,8,3,0,0.00
2013-1-9,46.6,42.8,36.0,45.9,41.4,32.9,99,95,86,30.02,29.83,16,6,0,0.00
2013-1-10,55.2,39.6,31.8,35.0,31.3,27.6,99,75,41,30.04,29.91,16,7,0,0.00
2013-1-11,53.1,39.8,33.4,34.3,30.6,27.4,83,71,46,30.09,29.96,17,6,0,0.00
2013-1-12,52.9,41.7,34.3,28.7,24.7,15.7,70,52,33,30.09,29.97,11,4,0,0.00
2013-1-13,58.8,43.0,32.5,33.0,17.5,4.1,61,37,20,30.09,30.00,9,3,0,0.00
2013-1-14,62.1,46.4,36.5,27.7,15.6,4.6,55,30,16,30.25,30.08,9,4,0,0.00
2013-1-15,62.2,45.8,37.2,34.2,28.1,21.4,75,51,33,30.35,30.26,9,3,0,0.00
2013-1-16,68.2,47.9,36.3,39.2,33.3,27.8,76,59,34,30.31,30.13,10,3,0,0.00
2013-1-17,73.4,54.7,42.3,40.4,33.0,19.8,70,46,26,30.13,30.02,9,4,0,0.00
2013-1-18,72.1,58.8,49.1,30.9,23.0,17.5,45,26,17,30.09,29.99,11,5,0,0.00
2013-1-19,68.9,56.9,48.4,27.2,19.5,15.1,34,23,18,30.10,30.02,10,4,0,0.00
2013-1-20,73.9,59.5,50.4,38.8,24.7,14.1,55,29,16,30.08,29.98,9,4,0,0.00
2013-1-21,78.3,59.9,50.2,37.1,27.0,17.9,48,29,17,30.04,29.94,11,4,0,0.00
2013-1-22,68.4,55.6,47.8,35.9,28.4,19.8,57,36,22,29.99,29.86,10,5,0,0.00
2013-1-23,54.5,49.6,45.7,49.0,40.2,31.9,99,74,42,29.97,29.82,8,4,0,0.63
2013-1-24,65.1,52.8,48.0,52.8,49.6,47.7,99,90,62,30.05,29.93,7,2,0,0.01
2013-1-25,70.9,55.0,49.3,53.4,50.7,48.9,99,87,53,30.06,29.91,9,3,0,0.00
2013-1-26,57.7,48.1,38.8,49.0,40.4,34.0,99,77,47,29.91,29.81,14,8,0,0.00
2013-1-27,59.2,43.5,35.1,35.5,33.4,30.3,90,70,38,30.03,29.90,12,7,0,0.00
2013-1-28,58.8,44.9,36.3,38.6,35.9,32.9,93,73,45,30.16,30.02,12,6,0,0.00
2013-1-29,65.8,50.0,38.8,41.6,37.5,34.3,85,64,38,30.24,30.15,10,5,0,0.00
2013-1-30,76.3,59.9,49.5,46.1,41.0,35.5,78,51,33,30.21,30.13,8,3,0,0.00
2013-1-31,76.6,57.6,46.9,47.7,42.1,38.0,82,59,28,30.17,30.05,9,3,0,0.00
2013-2-1,73.4,58.4,47.8,44.0,38.6,32.4,85,50,29,30.08,29.99,9,4,0,0.00
2013-2-2,75.0,53.5,43.3,49.7,43.2,35.3,99,70,38,30.17,30.08,13,4,0,0.00
2013-2-3,69.8,51.2,43.2,47.4,44.5,42.9,99,81,43,30.10,29.99,10,4,0,0.00
2013-2-4,72.3,52.4,40.5,49.5,44.4,40.2,99,77,44,30.03,29.92,8,3,0,0.00
2013-2-5,60.8,45.8,39.6,47.8,41.6,38.4,99,87,57,30.02,29.90,12,5,0,0.00
2013-2-6,63.5,47.2,37.9,41.3,38.4,35.3,97,74,39,30.07,29.96,17,7,0,0.00
2013-2-7,55.9,44.2,36.0,44.4,38.5,32.5,99,82,49,30.01,29.81,17,7,0,0.08
2013-2-8,62.4,45.6,34.7,36.4,32.5,21.4,99,65,21,29.86,29.77,11,3,0,0.00
2013-2-9,68.9,50.2,35.8,30.1,24.9,19.4,78,40,15,29.93,29.84,13,4,0,0.00
2013-2-10,73.2,55.2,44.4,40.8,29.8,22.9,60,39,23,29.96,29.87,9,3,0,0.00
2013-2-11,77.7,56.8,46.0,35.9,28.9,21.6,62,36,17,30.09,29.96,14,4,0,0.00
2013-2-12,70.7,52.5,38.8,42.4,37.8,33.2,82,60,30,30.23,30.09,14,4,0,0.00
2013-2-13,71.6,55.2,44.6,44.4,40.8,35.7,80,60,33,30.21,30.07,11,4,0,0.00
2013-2-14,82.8,65.6,54.5,44.5,35.3,30.2,54,34,19,30.11,30.03,11,4,0,0.00
2013-2-15,82.2,64.6,54.0,44.7,35.4,27.2,63,36,18,30.13,30.06,14,4,0,0.00
2013-2-16,80.6,60.8,50.5,45.7,39.7,35.2,63,47,27,30.11,29.89,11,4,0,0.00
2013-2-17,72.1,53.1,39.9,43.7,37.8,31.9,88,59,33,29.90,29.82,14,6,0,0.00
2013-2-18,54.7,43.1,36.3,41.3,37.9,34.5,99,83,59,29.88,29.77,13,6,0,0.00
2013-2-19,49.1,39.4,32.7,41.3,34.6,29.5,99,84,56,29.80,29.58,17,8,0,0.24
2013-2-20,61.3,44.0,32.7,36.1,32.5,29.6,90,68,37,29.91,29.70,17,8,0,0.00
2013-2-21,66.7,48.8,36.5,35.7,32.0,27.4,87,57,24,30.03,29.90,12,5,0,0.00
2013-2-22,66.0,51.3,40.5,39.7,35.9,30.5,79,58,31,30.13,30.00,12,7,0,0.00
2013-2-23,66.2,49.3,39.4,40.6,32.6,20.0,92,57,25,30.12,29.99,12,5,0,0.00
2013-2-24,77.0,54.0,41.0,35.1,24.2,17.4,65,35,12,30.12,30.00,16,3,0,0.00
2013-2-25,73.2,52.0,39.0,41.0,33.3,18.4,85,55,18,30.12,30.03,11,6,0,0.00
2013-2-26,81.3,60.5,41.2,33.7,24.5,16.2,68,29,12,30.10,30.02,10,4,0,0.00
2013-2-27,77.2,58.2,43.5,44.5,32.7,23.6,82,41,21,30.24,30.08,13,5,0,0.00
2013-2-28,76.5,58.6,47.3,52.2,48.5,44.7,92,72,40,30.32,30.23,11,6,0,0.00
2013-3-1,82.6,62.3,48.6,53.1,48.7,45.1,98,66,33,30.30,30.11,14,4,0,0.00
2013-3-2,77.4,61.1,53.8,52.1,47.7,44.9,79,62,38,30.13,29.93,12,4,0,0.00
2013-3-3,69.8,54.0,43.2,48.7,45.7,42.9,99,76,43,29.94,29.86,17,6,0,0.00
2013-3-4,59.2,45.2,39.4,49.4,42.2,37.2,99,90,62,30.00,29.90,14,4,0,0.00
2013-3-5,51.4,42.8,36.7,44.0,39.6,36.4,99,89,69,29.92,29.62,35,7,0,0.33
2013-3-6,52.7,44.6,39.6,44.2,39.0,34.2,98,82,53,29.90,29.63,39,13,0,0.35
2013-3-7,56.7,45.3,36.7,37.7,35.4,32.2,94,70,44,29.85,29.72,7,2,0,0.00
2013-3-8,66.7,48.6,37.9,38.9,35.9,31.4,86,64,33,29.87,29.68,18,7,0,0.00
2013-3-9,78.4,55.5,38.1,42.6,36.3,31.6,88,54,21,30.18,29.87,11,5,0,0.00
2013-3-10,79.2,61.6,48.7,42.1,32.3,23.1,58,35,15,30.20,30.10,15,4,0,0.00
2013-3-11,79.5,60.9,47.7,43.7,38.0,33.7,63,45,24,30.13,29.96,12,4,0,0.00
2013-3-12,86.0,63.8,46.4,53.1,46.6,41.7,88,57,27,30.03,29.94,12,3,0,0.00
2013-3-13,89.1,68.4,54.3,55.3,49.7,46.0,76,54,25,30.04,29.93,10,3,0,0.00
2013-3-14,74.8,62.8,52.5,52.1,45.9,35.0,81,56,29,30.03,29.94,11,4,0,0.00
2013-3-15,82.0,60.8,48.0,49.2,43.4,39.3,73,55,29,30.00,29.89,16,6,0,0.00
2013-3-16,77.4,59.3,48.7,44.6,41.3,35.0,83,55,24,29.98,29.88,13,7,0,0.00
2013-3-17,78.3,55.8,41.2,43.3,39.0,34.8,91,58,23,30.01,29.90,16,6,0,0.00
2013-3-18,73.9,56.6,44.8,47.4,40.4,35.8,74,56,35,29.98,29.89,10,5,0,0.00
2013-3-19,61.7,51.5,43.3,45.5,40.1,31.1,98,67,45,30.00,29.92,12,4,0,0.05
2013-3-20,54.9,48.2,43.7,53.6,47.7,43.4,99,98,93,30.00,29.92,20,6,0,0.52
2013-3-21,70.0,50.9,37.8,44.5,40.1,36.3,99,71,37,30.00,29.89,14,6,0,0.00
2013-3-22,78.3,55.4,39.6,36.8,30.3,16.2,85,44,15,30.00,29.92,9,4,0,0.00
2013-3-23,75.9,57.8,41.7,37.7,32.0,21.9,67,40,17,30.02,29.91,14,4,0,0.00
2013-3-24,78.4,60.1,46.6,46.3,40.0,34.0,71,49,32,29.96,29.83,12,4,0,0.00
2013-3-25,66.4,50.8,41.5,46.2,42.2,39.1,99,75,47,29.87,29.79,19,6,0,0.00
2013-3-26,69.8,52.0,40.1,46.6,42.8,39.8,99,75,42,29.86,29.79,18,7,0,0.00
2013-3-27,58.6,49.9,43.3,50.5,46.1,42.2,99,87,69,29.88,29.80,11,5,0,0.00
2013-3-28,65.3,53.6,45.7,57.0,49.4,45.4,99,86,60,29.97,29.88,7,1,0,0.10
2013-3-29,82.2,63.0,48.9,52.8,48.8,45.7,97,63,34,29.95,29.87,14,5,0,0.00
2013-3-30,74.5,56.3,49.8,53.7,48.8,45.6,99,77,47,29.93,29.84,13,5,0,0.19
2013-3-31,62.6,51.8,48.7,57.4,51.1,48.4,99,98,76,29.93,29.86,11,2,0,0.54
2013-4-1,62.8,52.9,48.2,54.9,50.4,47.1,99,92,70,30.02,29.91,14,4,0,0.12
2013-4-2,74.8,56.2,45.0,54.7,49.2,44.7,99,80,49,30.06,29.95,13,6,0,0.00
2013-4-3,82.2,60.1,44.1,56.7,49.4,40.2,99,72,40,30.00,29.84,17,4,0,0.00
2013-4-4,55.4,50.4,45.7,54.6,49.5,39.8,99,97,58,29.97,29.84,20,6,0,0.98
2013-4-5,59.5,52.0,48.7,52.7,49.5,47.4,99,92,73,30.04,29.96,18,8,0,0.02
2013-4-6,68.0,54.3,47.8,53.4,49.3,46.4,99,85,51,30.04,29.96,20,8,0,0.00
2013-4-7,60.3,50.7,45.0,53.0,47.6,41.8,99,90,69,30.02,29.65,32,10,0,0.09
2013-4-8,74.7,54.3,39.6,42.3,35.9,24.8,93,55,17,29.92,29.64,17,7,0,0.00
2013-4-9,85.6,63.9,42.4,43.2,34.2,22.8,82,40,12,30.01,29.93,9,4,0,0.00
2013-4-10,89.2,69.6,55.4,52.1,45.4,35.7,71,44,24,30.08,29.90,18,7,0,0.00
2013-4-11,85.3,60.8,45.7,47.5,43.7,35.4,88,58,19,29.91,29.70,17,8,0,0.00
2013-4-12,82.2,60.5,44.2,49.7,43.5,39.2,89,57,31,29.78,29.67,14,6,0,0.00
2013-4-13,75.7,59.1,46.4,46.0,40.6,35.8,75,52,34,29.76,29.66,16,8,0,0.00
2013-4-14,71.6,53.2,41.0,44.2,36.8,29.0,86,57,25,29.78,29.69,20,9,0,0.00
2013-4-15,61.5,48.5,38.8,41.2,35.0,30.4,96,63,33,29.82,29.69,24,8,0,0.00
2013-4-16,75.9,56.7,39.0,30.6,25.6,19.2,70,36,13,30.07,29.82,13,5,0,0.00
2013-4-17,78.8,61.2,47.8,35.4,26.0,17.4,53,29,12,30.16,30.06,8,3,0,0.00
2013-4-18,88.7,67.0,51.6,41.7,33.6,24.3,53,31,15,30.15,30.05,18,4,0,0.00
2013-4-19,88.3,67.0,54.0,54.5,46.1,41.6,67,49,31,30.10,29.93,15,6,0,0.00
2013-4-20,91.9,67.5,49.1,46.6,40.7,32.8,69,42,14,30.00,29.84,14,6,0,0.00
2013-4-21,95.5,72.3,54.7,48.0,42.4,36.9,64,38,15,29.91,29.79,17,5,0,0.00
2013-4-22,101.7,78.9,65.7,48.5,37.8,24.2,43,26,7,29.84,29.71,14,4,0,0.00
2013-4-23,92.1,70.3,53.4,45.5,27.7,13.3,63,24,9,29.80,29.69,18,8,0,0.00
2013-4-24,86.5,59.5,44.1,49.0,40.8,28.8,99,56,16,29.80,29.67,19,7,0,0.00
2013-4-25,69.6,51.1,43.2,49.6,45.1,42.9,99,83,49,29.98,29.80,19,8,0,0.00
2013-4-26,76.3,56.8,44.2,54.0,48.0,43.9,99,76,43,30.08,29.98,12,6,0,0.00
2013-4-27,88.0,62.3,42.1,56.5,48.3,41.8,99,67,29,30.08,29.92,14,5,0,0.00
2013-4-28,91.0,72.0,52.0,57.1,49.9,41.7,82,48,30,29.91,29.74,12,4,0,0.00
2013-4-29,95.0,72.8,57.0,53.0,47.9,42.7,65,44,23,29.78,29.61,12,6,0,0.00
2013-4-30,94.3,70.6,51.1,45.5,30.6,9.4,72,35,6,29.74,29.63,20,6,0,0.00
2013-5-1,95.2,76.7,61.3,28.2,18.6,11.1,15,11,8,29.95,29.73,11,4,0,0.00
2013-5-2,99.1,79.1,67.5,41.8,23.7,11.7,20,13,9,30.02,29.93,16,6,0,0.00
2013-5-3,98.8,78.9,65.7,46.9,33.9,21.3,31,20,13,29.96,29.67,15,6,0,0.00
2013-5-4,99.7,75.3,48.9,47.7,34.4,24.3,94,29,8,29.66,29.42,22,7,0,0.00
2013-5-5,64.6,54.1,49.1,49.5,46.9,45.3,93,77,58,29.69,29.47,15,6,0,0.00
2013-5-6,69.4,56.7,48.6,50.5,47.7,45.0,94,73,46,29.84,29.69,14,4,0,0.00
2013-5-7,69.6,58.8,51.1,51.1,49.1,45.4,94,72,48,29.90,29.83,20,7,0,0.00
2013-5-8,73.2,54.4,46.9,53.7,48.6,45.7,99,83,50,29.99,29.88,17,7,0,0.00
2013-5-9,73.0,57.3,45.1,53.9,49.2,44.8,99,77,51,30.01,29.92,17,7,0,0.00
2013-5-10,85.1,62.7,45.3,58.7,51.8,45.0,99,72,39,30.04,29.93,15,5,0,0.00
2013-5-11,93.0,70.8,50.4,60.4,53.7,47.7,91,59,32,29.99,29.90,14,4,0,0.00
2013-5-12,86.7,69.2,53.1,59.6,52.1,47.3,89,57,36,30.02,29.86,17,6,0,0.00
2013-5-13,89.1,69.3,51.3,58.5,50.0,43.9,85,52,33,29.93,29.77,18,6,0,0.00
2013-5-14,88.7,69.7,54.3,53.2,46.5,39.6,74,47,25,29.80,29.72,18,6,0,0.00
2013-5-15,79.2,59.4,47.7,45.9,42.3,40.5,76,56,30,29.88,29.79,14,6,0,0.00
2013-5-24,70.5,61.2,50.7,43.4,40.6,39.9,67,48,34,29.82,29.77,16,9,0,0.00
2013-5-25,75.4,58.8,44.1,45.2,42.2,39.3,84,57,32,29.89,29.80,21,8,0,0.00
2013-5-26,79.0,60.4,48.7,49.8,46.1,39.7,92,63,25,29.95,29.88,22,9,0,0.00
2013-5-27,60.1,53.3,47.7,53.2,48.3,41.8,99,83,71,29.96,29.85,19,9,0,0.08
2013-5-28,77.4,60.3,51.8,56.9,52.8,48.8,99,79,47,29.86,29.77,18,7,0,0.01
2013-5-29,84.4,63.5,52.2,52.6,48.3,44.5,84,61,30,29.82,29.73,12,7,0,0.00
2013-5-30,87.4,64.0,46.0,46.5,43.0,35.2,87,53,17,29.85,29.77,12,7,0,0.00
2013-5-31,91.8,70.6,50.2,50.6,45.2,41.9,76,46,18,29.89,29.77,16,8,0,0.00
2013-6-1,97.5,74.2,56.8,52.9,46.3,42.6,59,40,20,29.82,29.64,13,7,0,0.00
2013-6-2,90.5,72.3,55.4,54.6,48.5,43.9,78,46,25,29.66,29.48,11,6,0,0.00
2013-6-3,70.7,59.0,48.9,53.4,50.2,46.8,98,75,54,29.72,29.55,19,8,0,0.00
2013-6-4,66.9,54.9,48.7,52.7,49.3,47.5,98,83,59,29.82,29.71,20,10,0,0.00
2013-6-5,81.0,57.9,47.5,56.7,50.6,47.2,99,80,43,29.85,29.75,19,8,0,0.00
2013-6-6,82.6,56.7,46.4,57.2,50.5,46.1,99,83,42,29.81,29.68,10,4,0,0.00
2013-6-7,105.1,75.4,49.3,61.9,54.1,48.4,97,56,21,29.72,29.58,10,3,0,0.00
2013-6-8,111.4,81.8,50.9,67.0,57.1,49.5,96,47,21,29.66,29.54,26,6,0,0.00
2013-6-9,65.3,54.5,50.5,54.8,51.6,49.7,99,90,68,29.75,29.66,20,10,0,0.00
2013-6-10,55.8,52.8,51.1,53.8,52.0,50.8,99,97,90,29.83,29.62,17,5,0,0.06
2013-6-11,83.3,63.7,49.8,60.4,53.4,42.7,99,72,44,29.86,29.74,16,6,0,0.00
2013-6-12,84.6,64.9,48.7,46.3,42.8,35.9,80,49,18,29.84,29.75,17,8,0,0.00
2013-6-13,88.5,65.7,47.7,47.0,41.8,33.3,73,47,16,29.96,29.82,14,7,0,0.00
2013-6-14,95.2,74.6,55.9,46.8,38.0,30.9,65,29,11,29.86,29.67,21,5,0,0.00
2013-6-15,89.4,68.1,49.3,53.8,48.9,41.8,99,56,29,29.81,29.66,14,5,0,0.00
2013-6-16,92.3,70.4,54.9,49.8,44.7,39.7,67,43,18,29.92,29.81,14,7,0,0.00
2013-6-17,77.9,60.2,52.5,50.2,46.1,44.8,75,61,37,29.92,29.89,14,8,0,0.00
2013-10-23,67.3,54.1,48.2,49.3,38.7,-99.9,86,65,44,29.80,29.74,7,-46,0,0.00
2013-10-24,69.6,49.5,38.6,47.1,42.9,38.3,99,81,42,29.94,29.80,12,6,0,0.00
2013-10-25,79.3,57.8,42.8,49.4,45.3,41.8,98,68,33,30.04,29.94,11,4,0,0.00
2013-10-26,90.5,68.1,53.0,45.8,41.5,36.9,68,42,18,30.02,29.87,11,4,0,0.00
2013-10-27,62.4,52.6,43.0,46.0,40.4,36.3,82,64,41,29.88,29.46,24,8,0,0.00
2013-10-28,66.9,50.3,41.7,41.7,39.2,36.0,95,69,34,29.67,29.50,15,5,0,0.00
2013-10-29,66.7,52.8,42.6,45.5,42.6,41.2,97,70,43,29.91,29.67,11,4,0,0.00
2013-10-30,69.8,54.1,44.0,45.0,41.4,38.0,87,65,37,30.02,29.91,15,4,0,0.00
2013-10-31,80.8,60.9,47.6,45.9,41.2,37.5,73,51,26,30.05,29.93,9,3,0,0.00
2013-11-1,82.7,64.4,52.3,43.9,40.7,38.3,63,44,23,30.02,29.88,12,4,0,0.00
2013-11-2,74.3,59.7,48.4,47.6,40.2,35.3,66,50,27,29.89,29.75,14,5,0,0.00
2013-11-3,64.6,48.9,39.9,36.4,31.0,25.9,72,53,24,29.93,29.79,11,6,0,0.00
2013-11-4,75.4,54.9,39.0,33.5,27.7,19.3,70,41,12,29.98,29.78,12,4,0,0.00
2013-11-5,80.9,62.0,51.1,35.1,30.9,26.2,42,32,18,30.09,29.96,10,3,0,0.00
2013-11-6,81.7,62.9,52.5,41.8,35.3,31.1,47,37,24,30.14,30.04,10,2,0,0.00
2013-11-7,77.2,61.4,50.0,45.7,36.3,31.0,84,41,22,30.05,29.93,14,4,0,0.00
2013-11-8,79.9,62.4,49.6,48.2,40.6,33.8,77,46,31,29.95,29.80,16,5,0,0.00
2013-11-9,79.1,61.6,48.7,43.3,40.5,35.0,71,48,26,29.90,29.82,9,3,0,0.00
2013-11-10,75.7,54.2,41.7,48.7,44.2,39.6,97,72,38,29.97,29.87,9,3,0,0.00
2013-11-11,73.9,54.2,39.4,47.8,43.1,39.1,99,70,33,30.06,29.93,10,3,0,0.00
2013-11-12,74.8,59.4,51.8,44.8,41.9,38.5,71,54,28,30.16,30.03,11,4,0,0.00
2013-11-13,83.5,64.5,53.0,49.3,45.8,41.6,69,53,28,30.13,29.95,12,5,0,0.00
2013-11-14,67.8,55.4,47.5,48.0,42.9,28.6,81,63,46,29.96,29.72,14,6,0,0.00
2013-11-15,73.4,51.9,41.2,37.2,34.6,30.0,78,55,21,29.73,29.57,14,6,0,0.00
2013-11-16,70.9,50.5,39.7,43.3,39.1,33.6,90,68,35,29.77,29.61,14,6,0,0.00
2013-11-17,70.1,50.3,40.4,45.9,43.1,39.9,99,79,36,29.94,29.77,8,2,0,0.00
2013-11-18,58.4,46.6,40.1,44.4,42.4,39.6,99,86,55,30.02,29.94,13,4,0,0.01
2013-11-19,50.2,47.1,44.0,49.9,46.7,43.3,99,99,96,29.96,29.80,5,1,0,1.00
2013-11-20,53.6,50.4,46.7,52.5,50.1,46.4,99,99,96,29.79,29.71,12,4,0,0.36
2013-11-21,63.1,51.3,44.2,46.1,25.4,9.1,99,44,17,29.87,29.75,11,5,0,0.00
2013-11-22,75.4,58.8,49.1,11.9,7.1,0.4,19,13,7,29.88,29.80,13,5,0,0.00
2013-11-23,75.0,58.6,48.5,27.1,15.1,6.7,37,20,9,29.95,29.79,14,7,0,0.00
2013-11-24,69.8,53.3,42.8,40.8,30.9,20.0,75,45,23,30.11,29.95,11,3,0,0.00
2013-11-25,71.6,54.3,42.2,42.9,39.2,35.1,78,59,30,30.20,30.11,10,2,0,0.00
2013-11-26,72.0,54.7,46.2,39.7,35.4,32.0,73,50,24,30.14,29.91,8,2,0,0.00
2013-11-27,66.9,56.6,50.4,40.5,36.0,31.7,52,46,38,29.91,29.71,12,4,0,0.00
2013-11-28,80.2,62.5,54.9,42.2,38.1,34.9,54,42,23,29.94,29.74,12,4,0,0.00
2013-11-29,81.3,61.2,50.5,43.8,39.8,36.5,60,47,23,30.09,29.94,9,2,0,0.00
2013-11-30,80.4,61.6,51.6,45.3,41.7,39.6,65,50,26,30.14,30.05,9,2,0,0.00
2013-12-1,77.9,62.3,52.2,46.2,43.4,39.9,79,51,32,30.21,30.09,10,4,0,0.00
2013-12-2,67.3,53.8,47.7,49.6,46.5,43.8,92,77,49,30.09,29.80,16,7,0,0.00
2013-12-3,61.9,47.0,39.9,49.4,30.9,15.9,94,56,28,29.80,29.69,16,5,0,0.00
2013-12-4,59.9,43.8,33.4,23.1,16.1,5.0,51,33,20,29.94,29.80,8,2,0,0.00
2013-12-5,57.9,42.4,34.0,28.3,16.6,6.1,74,38,17,30.00,29.93,10,3,0,0.00
2013-12-6,60.4,38.5,31.1,40.3,30.8,23.3,99,77,30,30.00,29.73,15,2,0,2.97
2013-12-7,52.0,37.3,30.2,38.5,27.4,20.4,99,70,35,30.09,29.74,14,6,0,0.00
2013-12-8,53.8,38.7,29.1,25.4,16.5,3.9,77,43,24,30.16,30.06,8,3,0,0.00
2013-12-9,64.0,44.9,35.1,24.1,13.5,-0.3,51,30,12,30.28,30.14,12,4,0,0.00
2013-12-10,64.9,44.6,32.2,25.6,20.6,13.5,56,40,20,30.27,30.07,7,3,0,0.00
2013-12-11,70.3,51.1,39.6,35.4,28.0,23.6,57,42,23,30.10,30.04,9,4,0,0.00
2013-12-12,71.2,53.7,44.6,35.0,26.7,20.6,56,36,20,30.13,30.04,9,4,0,0.00
2013-12-13,71.2,53.7,40.8,34.9,31.5,28.4,62,45,24,30.20,30.09,8,3,0,0.00
2013-12-14,76.6,56.6,45.1,40.7,34.6,29.8,68,45,22,30.28,30.17,10,3,0,0.00
2013-12-15,77.0,56.1,44.4,39.8,34.3,27.8,67,46,26,30.25,30.12,7,3,0,0.00
2013-12-16,81.0,60.3,49.3,40.4,31.9,22.8,52,35,19,30.11,30.01,13,4,0,0.00
2013-12-17,73.9,60.9,50.9,38.0,31.3,23.1,52,34,22,30.05,29.90,7,3,0,0.00
2013-12-18,63.1,53.9,44.6,42.2,36.2,30.8,74,53,37,29.90,29.59,16,5,0,0.00
2013-12-19,64.6,50.5,40.3,36.5,23.9,2.7,79,41,14,29.79,29.57,16,5,0,0.00
2013-12-20,73.4,55.6,44.8,35.5,13.2,-9.8,63,23,7,29.89,29.77,12,5,0,0.00
2013-12-21,71.2,54.5,44.8,46.9,42.9,35.7,91,67,40,29.96,29.83,14,6,0,0.00
2013-12-22,82.4,61.5,50.5,44.1,38.4,32.1,65,44,24,30.16,29.95,9,3,0,0.00
2013-12-23,78.6,58.7,48.6,46.0,40.1,37.0,67,52,28,30.27,30.15,7,3,0,0.00
2013-12-24,82.9,62.5,51.4,44.9,40.3,28.8,64,46,25,30.21,30.08,10,4,0,0.00
2013-12-25,79.7,61.0,50.5,41.0,32.7,21.4,68,38,15,30.17,30.07,7,3,0,0.00
2013-12-26,78.4,63.6,54.9,32.3,26.3,20.6,37,25,15,30.12,30.04,9,3,0,0.00
2013-12-27,69.3,56.7,49.8,34.9,27.5,22.7,47,33,23,30.10,29.98,6,3,0,0.00
2013-12-28,80.6,61.7,45.7,29.4,23.4,15.4,49,26,12,30.00,29.89,8,3,0,0.00
2013-12-29,81.3,62.1,49.8,29.2,17.5,5.1,37,19,8,30.04,29.93,9,4,0,0.00
2013-12-30,77.0,57.9,48.7,34.7,26.4,17.1,51,31,17,30.10,30.02,8,4,0,0.00
2013-12-31,75.6,56.0,48.7,37.0,32.0,27.4,52,41,24,30.12,30.01,8,3,0,0.00
2014-1-1,77.0,60.3,50.7,34.6,29.4,22.5,42,32,18,30.06,29.98,7,2,0,0.00
2014-1-2,78.4,59.6,51.8,38.9,33.7,29.2,48,38,21,30.04,29.92,7,3,0,0.00